Matteo Br — 9HA2979 — position and weather

sailwx.info

Track history (hours):
 
Tides and Currents Weather Stations Pressure Air Temp Water Temp Dewpoint Dewpoint Depression Visibility Wind Speed Wind Dir Waves Ship Positions

Matteo Br

Last reported at 2018-Jun-20 21:00 UTC. Time now 2018-Jun-20 21:10 UTC.
Position N 51°48' E 004°38'.

Length 157 m; draft 9.3 m.

Type: Cargo ship. MMSI: 229002000.

Date/timePositionNaut miles runAvg speedWind from/ knotsBaromVisibWave heightAir tempDewpointWater temp
2018-Jun-20 21:00N 51°48' E 004°38'0 0.6
2018-Jun-20 20:30N 51°48' E 004°38'3 5.9
2018-Jun-20 20:01N 51°49' E 004°34'4 7.7
2018-Jun-20 19:30N 51°50' E 004°28'4 8.5
2018-Jun-20 19:00N 51°51' E 004°21'3 5.7
2018-Jun-20 18:31N 51°54' E 004°19'4 8.0
2018-Jun-20 18:00N 51°56' E 004°13'4 8.2
2018-Jun-20 17:30N 51°58' E 004°08'4 7.9
2018-Jun-20 17:00N 51°59' E 004°02'4 7.9
2018-Jun-20 16:30N 52°00' E 003°56'4 7.5
2018-Jun-20 16:00N 52°00' E 003°50'4 9.0
2018-Jun-20 15:31N 51°58' E 003°43'510.2
2018-Jun-20 15:00N 51°56' E 003°35'1 2.1
2018-Jun-20 14:21N 51°55' E 003°34'0 0.0
2018-Jun-20 13:57N 51°55' E 003°34'0 0.0
2018-Jun-20 13:24N 51°55' E 003°34'0 0.0
2018-Jun-20 13:00N 51°55' E 003°34'0 0.1
2018-Jun-20 12:27N 51°55' E 003°34'0 0.2
2018-Jun-20 11:21N 51°55' E 003°34'0 0.0
2018-Jun-20 11:00N 51°55' E 003°34'0 0.0
2018-Jun-20 10:30N 51°55' E 003°34'0 0.0
2018-Jun-20 09:42N 51°55' E 003°34'0 0.0
2018-Jun-20 07:48N 51°55' E 003°34'0 0.0
2018-Jun-20 07:27N 51°55' E 003°34'0 0.0
2018-Jun-20 06:42N 51°55' E 003°34'0 0.0
2018-Jun-20 06:30N 51°55' E 003°34'0 0.0
2018-Jun-20 05:51N 51°55' E 003°34'0 0.0
2018-Jun-20 04:24N 51°55' E 003°34'0 0.2
2018-Jun-20 03:54N 51°55' E 003°34'0 0.2
2018-Jun-20 03:23N 51°55' E 003°34'1 3.6
2018-Jun-20 03:00N 51°56' E 003°32'4 9.0
2018-Jun-20 02:30N 51°55' E 003°25'610.4
2018-Jun-20 01:56N 51°54' E 003°15'410.4
2018-Jun-20 01:30N 51°52' E 003°09'610.5
2018-Jun-20 00:56N 51°50' E 002°60'1310.8
2018-Jun-19 23:46N 51°46' E 002°40'610.8
2018-Jun-19 23:14N 51°42' E 002°34'311.2
2018-Jun-19 23:00N 51°40' E 002°31'611.5
2018-Jun-19 22:30N 51°36' E 002°25'611.5
2018-Jun-19 22:00N 51°31' E 002°19'611.6
2018-Jun-19 21:30N 51°27' E 002°13'612.1
2018-Jun-19 21:00N 51°21' E 002°10'612.5
2018-Jun-19 20:30N 51°16' E 002°05'612.1
2018-Jun-19 20:00N 51°12' E 001°58'612.7
2018-Jun-19 19:30N 51°08' E 001°49'713.1
2018-Jun-19 19:00N 51°04' E 001°41'713.5
2018-Jun-19 18:30N 50°59' E 001°35'713.7
2018-Jun-19 18:00N 50°53' E 001°29'713.7
2018-Jun-19 17:30N 50°46' E 001°25'4512.4
2018-Jun-19 13:53N 50°24' E 000°24'613.7
2018-Jun-19 13:27N 50°22' E 000°15'1913.8
2018-Jun-19 12:04N 50°16' W 000°13'113.7
2018-Jun-19 11:57N 50°16' W 000°16'4912.2
2018-Jun-19 07:57N 50°04' W 001°29'20 8.5
2018-Jun-19 05:40N 49°59' W 001°59'4 7.9
2018-Jun-19 05:10N 49°58' W 002°05'4 8.4
2018-Jun-19 04:39N 49°57' W 002°11'2510.6
2018-Jun-19 02:18N 49°50' W 002°48'411.9
2018-Jun-19 02:00N 49°49' W 002°53'812.1
2018-Jun-19 01:22N 49°45' W 003°04'512.2
2018-Jun-19 00:59N 49°42' W 003°10'2712.5
2018-Jun-18 22:49N 49°29' W 003°46'512.8
2018-Jun-18 22:27N 49°27' W 003°52'6013.2
2018-Jun-18 17:54N 48°57' W 005°12'712.8
2018-Jun-18 17:19N 48°53' W 005°22'412.6
2018-Jun-18 17:00N 48°51' W 005°27'612.4
2018-Jun-18 16:30N 48°48' W 005°35'2611.4
2018-Jun-18 14:15N 48°25' W 005°54'310.5
2018-Jun-18 13:58N 48°23' W 005°56'  
2018-Jun-16 09:32N 39°52' W 009°51'1 9.4
2018-Jun-16 09:28N 39°51' W 009°51'17 9.4
2018-Jun-16 07:41N 39°34' W 009°51'19 9.5
2018-Jun-16 05:40N 39°15' W 009°51'2 9.3
2018-Jun-16 05:30N 39°14' W 009°51'5 9.5
2018-Jun-16 05:00N 39°09' W 009°51'5 9.3
2018-Jun-16 04:30N 39°04' W 009°52'4 9.0
2018-Jun-16 04:00N 38°60' W 009°51'5 9.3
2018-Jun-16 03:30N 38°55' W 009°51'5 9.5
2018-Jun-16 03:00N 38°50' W 009°51'5 9.7
2018-Jun-16 02:29N 38°45' W 009°52'5 9.5
2018-Jun-16 02:00N 38°41' W 009°51'5 9.4
2018-Jun-16 01:30N 38°36' W 009°49'5 9.1
2018-Jun-16 01:00N 38°32' W 009°48'5 9.2
2018-Jun-16 00:30N 38°27' W 009°47'5 9.2
2018-Jun-16 00:00N 38°23' W 009°45'5 9.3
2018-Jun-15 23:30N 38°18' W 009°44'5 9.3
2018-Jun-15 23:00N 38°14' W 009°43'5 9.4
2018-Jun-15 22:30N 38°09' W 009°41'5 9.1
2018-Jun-15 21:59N 38°05' W 009°40'5 9.3
2018-Jun-15 21:30N 38°00' W 009°39'5 9.4
2018-Jun-15 21:00N 37°56' W 009°37'5 9.3
2018-Jun-15 20:30N 37°51' W 009°36'5 9.1
2018-Jun-15 20:00N 37°47' W 009°35'5 9.1
2018-Jun-15 19:30N 37°42' W 009°33'5 9.3
2018-Jun-15 19:00N 37°38' W 009°32'5 9.2
2018-Jun-15 18:30N 37°33' W 009°30'5 9.3
2018-Jun-15 18:00N 37°29' W 009°29'5 9.7
2018-Jun-15 17:29N 37°24' W 009°28'5 9.5
2018-Jun-15 17:00N 37°19' W 009°26'5 9.5
2018-Jun-15 16:30N 37°15' W 009°25'5 9.6
2018-Jun-15 16:00N 37°10' W 009°23'5 9.8
2018-Jun-15 15:30N 37°05' W 009°22'5 9.8
2018-Jun-15 14:59N 37°00' W 009°21'5 9.8
2018-Jun-15 14:28N 36°55' W 009°19'5 9.8
2018-Jun-15 13:59N 36°51' W 009°16'710.3
2018-Jun-15 13:17N 36°45' W 009°11'310.5
2018-Jun-15 13:00N 36°44' W 009°08'510.4
2018-Jun-15 12:30N 36°42' W 009°02'510.3
2018-Jun-15 12:00N 36°40' W 008°56'510.2
2018-Jun-15 11:30N 36°39' W 008°50'610.4
2018-Jun-15 10:59N 36°37' W 008°43'510.6
2018-Jun-15 10:29N 36°36' W 008°37'610.8
2018-Jun-15 09:56N 36°34' W 008°30'610.9
2018-Jun-15 09:26N 36°32' W 008°23'510.9
2018-Jun-15 09:00N 36°31' W 008°18'611.2
2018-Jun-15 08:30N 36°29' W 008°11'611.3
2018-Jun-15 08:00N 36°27' W 008°05'611.5
2018-Jun-15 07:27N 36°25' W 007°57'511.7
2018-Jun-15 07:00N 36°24' W 007°51'711.7
2018-Jun-15 06:22N 36°21' W 007°42'10711.7
2018-Jun-14 21:14N 35°58' W 005°33'2 9.1
2018-Jun-14 21:00N 35°59' W 005°30'4 7.9
2018-Jun-14 20:30N 36°00' W 005°26'3 6.9
2018-Jun-14 20:00N 36°01' W 005°22'3 6.9
2018-Jun-14 19:30N 36°02' W 005°18'22210.1
2018-Jun-13 21:36N 36°37' W 000°46'111.0
2018-Jun-13 21:30N 36°37' W 000°44'611.0
2018-Jun-13 20:59N 36°38' W 000°37'611.2
2018-Jun-13 20:30N 36°39' W 000°30'611.5
2018-Jun-13 19:59N 36°39' W 000°23'611.5
2018-Jun-13 19:30N 36°40' W 000°16'511.1
2018-Jun-13 19:00N 36°41' W 000°10'610.9
2018-Jun-13 18:27N 36°43' W 000°02'510.9
2018-Jun-13 18:00N 36°44' E 000°04'510.9
2018-Jun-13 17:30N 36°44' E 000°10'510.9
2018-Jun-13 17:00N 36°45' E 000°17'610.9
2018-Jun-13 16:30N 36°45' E 000°24'611.0
2018-Jun-13 15:58N 36°46' E 000°31'17810.6
2018-Jun-12 23:08N 37°11' E 004°12'38510.8
2018-Jun-11 11:27N 36°60' E 012°15'911.6
2018-Jun-11 10:40N 36°55' E 012°25'211.9
2018-Jun-11 10:30N 36°54' E 012°27'611.6
2018-Jun-11 10:00N 36°51' E 012°33'611.5
2018-Jun-11 09:30N 36°48' E 012°39'611.5
2018-Jun-11 08:59N 36°45' E 012°46'511.3
2018-Jun-11 08:30N 36°44' E 012°52'611.1
2018-Jun-11 08:00N 36°41' E 012°58'911.7
2018-Jun-11 07:12N 36°37' E 013°09'211.6
2018-Jun-11 07:00N 36°36' E 013°11'611.4
2018-Jun-11 06:30N 36°34' E 013°18'611.6
2018-Jun-11 06:00N 36°31' E 013°24'  
Track history (hours):
 
Tides and Currents Weather Stations Pressure Air Temp Water Temp Dewpoint Dewpoint Depression Visibility Wind Speed Wind Dir Waves Ship Positions

Matteo Br

Last reported at 2018-Jun-20 21:00 UTC. Time now 2018-Jun-20 21:10 UTC.
Position N 51°48' E 004°38'.

Length 157 m; draft 9.3 m.

Type: Cargo ship. MMSI: 229002000.

Date/timePositionNaut miles runAvg speedWind from/ knotsBaromVisibWave heightAir tempDewpointWater temp
2018-Jun-20 21:00N 51°48' E 004°38'0 0.6
2018-Jun-20 20:30N 51°48' E 004°38'3 5.9
2018-Jun-20 20:01N 51°49' E 004°34'4 7.7
2018-Jun-20 19:30N 51°50' E 004°28'4 8.5
2018-Jun-20 19:00N 51°51' E 004°21'3 5.7
2018-Jun-20 18:31N 51°54' E 004°19'4 8.0
2018-Jun-20 18:00N 51°56' E 004°13'4 8.2
2018-Jun-20 17:30N 51°58' E 004°08'4 7.9
2018-Jun-20 17:00N 51°59' E 004°02'4 7.9
2018-Jun-20 16:30N 52°00' E 003°56'4 7.5
2018-Jun-20 16:00N 52°00' E 003°50'4 9.0
2018-Jun-20 15:31N 51°58' E 003°43'510.2
2018-Jun-20 15:00N 51°56' E 003°35'1 2.1
2018-Jun-20 14:21N 51°55' E 003°34'0 0.0
2018-Jun-20 13:57N 51°55' E 003°34'0 0.0
2018-Jun-20 13:24N 51°55' E 003°34'0 0.0
2018-Jun-20 13:00N 51°55' E 003°34'0 0.1
2018-Jun-20 12:27N 51°55' E 003°34'0 0.2
2018-Jun-20 11:21N 51°55' E 003°34'0 0.0
2018-Jun-20 11:00N 51°55' E 003°34'0 0.0
2018-Jun-20 10:30N 51°55' E 003°34'0 0.0
2018-Jun-20 09:42N 51°55' E 003°34'0 0.0
2018-Jun-20 07:48N 51°55' E 003°34'0 0.0
2018-Jun-20 07:27N 51°55' E 003°34'0 0.0
2018-Jun-20 06:42N 51°55' E 003°34'0 0.0
2018-Jun-20 06:30N 51°55' E 003°34'0 0.0
2018-Jun-20 05:51N 51°55' E 003°34'0 0.0
2018-Jun-20 04:24N 51°55' E 003°34'0 0.2
2018-Jun-20 03:54N 51°55' E 003°34'0 0.2
2018-Jun-20 03:23N 51°55' E 003°34'1 3.6
2018-Jun-20 03:00N 51°56' E 003°32'4 9.0
2018-Jun-20 02:30N 51°55' E 003°25'610.4
2018-Jun-20 01:56N 51°54' E 003°15'410.4
2018-Jun-20 01:30N 51°52' E 003°09'610.5
2018-Jun-20 00:56N 51°50' E 002°60'1310.8
2018-Jun-19 23:46N 51°46' E 002°40'610.8
2018-Jun-19 23:14N 51°42' E 002°34'311.2
2018-Jun-19 23:00N 51°40' E 002°31'611.5
2018-Jun-19 22:30N 51°36' E 002°25'611.5
2018-Jun-19 22:00N 51°31' E 002°19'611.6
2018-Jun-19 21:30N 51°27' E 002°13'612.1
2018-Jun-19 21:00N 51°21' E 002°10'612.5
2018-Jun-19 20:30N 51°16' E 002°05'612.1
2018-Jun-19 20:00N 51°12' E 001°58'612.7
2018-Jun-19 19:30N 51°08' E 001°49'713.1
2018-Jun-19 19:00N 51°04' E 001°41'713.5
2018-Jun-19 18:30N 50°59' E 001°35'713.7
2018-Jun-19 18:00N 50°53' E 001°29'713.7
2018-Jun-19 17:30N 50°46' E 001°25'4512.4
2018-Jun-19 13:53N 50°24' E 000°24'613.7
2018-Jun-19 13:27N 50°22' E 000°15'1913.8
2018-Jun-19 12:04N 50°16' W 000°13'113.7
2018-Jun-19 11:57N 50°16' W 000°16'4912.2
2018-Jun-19 07:57N 50°04' W 001°29'20 8.5
2018-Jun-19 05:40N 49°59' W 001°59'4 7.9
2018-Jun-19 05:10N 49°58' W 002°05'4 8.4
2018-Jun-19 04:39N 49°57' W 002°11'2510.6
2018-Jun-19 02:18N 49°50' W 002°48'411.9
2018-Jun-19 02:00N 49°49' W 002°53'812.1
2018-Jun-19 01:22N 49°45' W 003°04'512.2
2018-Jun-19 00:59N 49°42' W 003°10'2712.5
2018-Jun-18 22:49N 49°29' W 003°46'512.8
2018-Jun-18 22:27N 49°27' W 003°52'6013.2
2018-Jun-18 17:54N 48°57' W 005°12'712.8
2018-Jun-18 17:19N 48°53' W 005°22'412.6
2018-Jun-18 17:00N 48°51' W 005°27'612.4
2018-Jun-18 16:30N 48°48' W 005°35'2611.4
2018-Jun-18 14:15N 48°25' W 005°54'310.5
2018-Jun-18 13:58N 48°23' W 005°56'  
2018-Jun-16 09:32N 39°52' W 009°51'1 9.4
2018-Jun-16 09:28N 39°51' W 009°51'17 9.4
2018-Jun-16 07:41N 39°34' W 009°51'19 9.5
2018-Jun-16 05:40N 39°15' W 009°51'2 9.3
2018-Jun-16 05:30N 39°14' W 009°51'5 9.5
2018-Jun-16 05:00N 39°09' W 009°51'5 9.3
2018-Jun-16 04:30N 39°04' W 009°52'4 9.0
2018-Jun-16 04:00N 38°60' W 009°51'5 9.3
2018-Jun-16 03:30N 38°55' W 009°51'5 9.5
2018-Jun-16 03:00N 38°50' W 009°51'5 9.7
2018-Jun-16 02:29N 38°45' W 009°52'5 9.5
2018-Jun-16 02:00N 38°41' W 009°51'5 9.4
2018-Jun-16 01:30N 38°36' W 009°49'5 9.1
2018-Jun-16 01:00N 38°32' W 009°48'5 9.2
2018-Jun-16 00:30N 38°27' W 009°47'5 9.2
2018-Jun-16 00:00N 38°23' W 009°45'5 9.3
2018-Jun-15 23:30N 38°18' W 009°44'5 9.3
2018-Jun-15 23:00N 38°14' W 009°43'5 9.4
2018-Jun-15 22:30N 38°09' W 009°41'5 9.1
2018-Jun-15 21:59N 38°05' W 009°40'5 9.3
2018-Jun-15 21:30N 38°00' W 009°39'5 9.4
2018-Jun-15 21:00N 37°56' W 009°37'5 9.3
2018-Jun-15 20:30N 37°51' W 009°36'5 9.1
2018-Jun-15 20:00N 37°47' W 009°35'5 9.1
2018-Jun-15 19:30N 37°42' W 009°33'5 9.3
2018-Jun-15 19:00N 37°38' W 009°32'5 9.2
2018-Jun-15 18:30N 37°33' W 009°30'5 9.3
2018-Jun-15 18:00N 37°29' W 009°29'5 9.7
2018-Jun-15 17:29N 37°24' W 009°28'5 9.5
2018-Jun-15 17:00N 37°19' W 009°26'5 9.5
2018-Jun-15 16:30N 37°15' W 009°25'5 9.6
2018-Jun-15 16:00N 37°10' W 009°23'5 9.8
2018-Jun-15 15:30N 37°05' W 009°22'5 9.8
2018-Jun-15 14:59N 37°00' W 009°21'5 9.8
2018-Jun-15 14:28N 36°55' W 009°19'5 9.8
2018-Jun-15 13:59N 36°51' W 009°16'710.3
2018-Jun-15 13:17N 36°45' W 009°11'310.5
2018-Jun-15 13:00N 36°44' W 009°08'510.4
2018-Jun-15 12:30N 36°42' W 009°02'510.3
2018-Jun-15 12:00N 36°40' W 008°56'510.2
2018-Jun-15 11:30N 36°39' W 008°50'610.4
2018-Jun-15 10:59N 36°37' W 008°43'510.6
2018-Jun-15 10:29N 36°36' W 008°37'610.8
2018-Jun-15 09:56N 36°34' W 008°30'610.9
2018-Jun-15 09:26N 36°32' W 008°23'510.9
2018-Jun-15 09:00N 36°31' W 008°18'611.2
2018-Jun-15 08:30N 36°29' W 008°11'611.3
2018-Jun-15 08:00N 36°27' W 008°05'611.5
2018-Jun-15 07:27N 36°25' W 007°57'511.7
2018-Jun-15 07:00N 36°24' W 007°51'711.7
2018-Jun-15 06:22N 36°21' W 007°42'10711.7
2018-Jun-14 21:14N 35°58' W 005°33'2 9.1
2018-Jun-14 21:00N 35°59' W 005°30'4 7.9
2018-Jun-14 20:30N 36°00' W 005°26'3 6.9
2018-Jun-14 20:00N 36°01' W 005°22'3 6.9
2018-Jun-14 19:30N 36°02' W 005°18'22210.1
2018-Jun-13 21:36N 36°37' W 000°46'111.0
2018-Jun-13 21:30N 36°37' W 000°44'611.0
2018-Jun-13 20:59N 36°38' W 000°37'611.2
2018-Jun-13 20:30N 36°39' W 000°30'611.5
2018-Jun-13 19:59N 36°39' W 000°23'611.5
2018-Jun-13 19:30N 36°40' W 000°16'511.1
2018-Jun-13 19:00N 36°41' W 000°10'610.9
2018-Jun-13 18:27N 36°43' W 000°02'510.9
2018-Jun-13 18:00N 36°44' E 000°04'510.9
2018-Jun-13 17:30N 36°44' E 000°10'510.9
2018-Jun-13 17:00N 36°45' E 000°17'610.9
2018-Jun-13 16:30N 36°45' E 000°24'611.0
2018-Jun-13 15:58N 36°46' E 000°31'17810.6
2018-Jun-12 23:08N 37°11' E 004°12'38510.8
2018-Jun-11 11:27N 36°60' E 012°15'911.6
2018-Jun-11 10:40N 36°55' E 012°25'211.9
2018-Jun-11 10:30N 36°54' E 012°27'611.6
2018-Jun-11 10:00N 36°51' E 012°33'611.5
2018-Jun-11 09:30N 36°48' E 012°39'611.5
2018-Jun-11 08:59N 36°45' E 012°46'511.3
2018-Jun-11 08:30N 36°44' E 012°52'611.1
2018-Jun-11 08:00N 36°41' E 012°58'911.7
2018-Jun-11 07:12N 36°37' E 013°09'211.6
2018-Jun-11 07:00N 36°36' E 013°11'611.4
2018-Jun-11 06:30N 36°34' E 013°18'611.6
2018-Jun-11 06:00N 36°31' E 013°24'  

Dump ship's entire track history